createdAt,value
2022-08-08T00:02:33.044Z,20.85
2022-08-08T00:05:44.315Z,23.10
2022-08-08T00:08:43.475Z,23.42
2022-08-08T00:12:06.848Z,23.63
2022-08-08T00:15:17.679Z,24.02
2022-08-08T00:18:05.745Z,25.00
2022-08-08T00:20:44.690Z,24.95
2022-08-08T00:23:47.630Z,23.45
2022-08-08T00:26:31.914Z,19.33
2022-08-08T00:29:45.203Z,22.05
2022-08-08T00:32:35.348Z,22.42
2022-08-08T00:35:22.618Z,26.38
2022-08-08T00:38:16.872Z,25.48
2022-08-08T00:41:55.338Z,20.85
2022-08-08T00:44:42.254Z,23.17
2022-08-08T00:47:37.005Z,26.63
2022-08-08T00:50:52.390Z,21.23
2022-08-08T00:53:43.692Z,23.92
2022-08-08T00:56:35.917Z,23.23
2022-08-08T00:59:44.669Z,24.70
2022-08-08T01:04:02.216Z,26.70
2022-08-08T01:06:00.793Z,21.90
2022-08-08T01:08:50.325Z,23.17
2022-08-08T01:11:27.755Z,21.98
2022-08-08T01:14:54.219Z,21.77
2022-08-08T01:17:54.198Z,24.83
2022-08-08T01:20:44.354Z,26.50
2022-08-08T01:24:05.892Z,24.38
2022-08-08T01:26:51.824Z,29.42
2022-08-08T01:29:59.745Z,31.23
2022-08-08T01:33:16.239Z,29.20
2022-08-08T01:36:11.453Z,29.92
2022-08-08T01:39:28.020Z,30.23
2022-08-08T01:42:19.051Z,33.72
2022-08-08T01:45:25.763Z,24.98
2022-08-08T01:48:31.377Z,26.42
2022-08-08T01:52:33.767Z,29.00
2022-08-08T01:55:26.797Z,25.67
2022-08-08T01:58:16.862Z,24.70
2022-08-08T02:01:22.321Z,22.65
2022-08-08T02:04:05.297Z,21.83
2022-08-08T02:06:56.349Z,23.63
2022-08-08T02:10:02.845Z,23.88
2022-08-08T02:13:52.698Z,19.95
2022-08-08T02:16:28.530Z,23.55
2022-08-08T02:19:57.644Z,22.02
2022-08-08T02:22:31.942Z,25.65
2022-08-08T02:25:47.264Z,24.75
2022-08-08T02:28:41.493Z,22.52
2022-08-08T02:31:54.153Z,23.17
2022-08-08T02:35:06.471Z,21.45
2022-08-08T02:37:53.358Z,24.48
2022-08-08T02:40:38.776Z,20.98
2022-08-08T02:44:42.586Z,22.83
2022-08-08T02:47:03.777Z,21.05
2022-08-08T02:49:57.663Z,21.25
2022-08-08T02:52:43.565Z,23.75
2022-08-08T02:55:37.463Z,24.70
2022-08-08T02:58:15.031Z,23.08
2022-08-08T03:01:01.903Z,23.45
2022-08-08T03:05:04.803Z,24.35
2022-08-08T03:06:51.011Z,23.50
2022-08-08T03:12:35.983Z,23.23
2022-08-08T03:16:00.050Z,23.92
2022-08-08T03:18:13.726Z,22.38
2022-08-08T03:20:51.613Z,21.17
2022-08-08T03:23:30.543Z,19.80
2022-08-08T03:26:08.370Z,23.23
2022-08-08T03:28:53.825Z,18.92
2022-08-08T03:32:06.393Z,19.92
2022-08-08T03:34:30.206Z,16.52
2022-08-08T03:36:59.249Z,19.65
2022-08-08T03:39:26.713Z,17.60
2022-08-08T03:42:28.560Z,19.42
2022-08-08T03:44:47.752Z,17.27
2022-08-08T03:47:23.326Z,18.33
2022-08-08T03:50:00.044Z,16.77
2022-08-08T03:52:33.705Z,18.70
2022-08-08T03:55:54.960Z,14.55
2022-08-08T03:58:32.184Z,15.68
2022-08-08T04:01:02.093Z,15.50
2022-08-08T04:03:57.283Z,13.18
2022-08-08T04:06:31.374Z,14.57
2022-08-08T04:09:10.643Z,16.65
2022-08-08T04:11:48.495Z,14.40
2022-08-08T04:14:36.320Z,15.05
2022-08-08T04:17:06.990Z,14.65
2022-08-08T04:19:51.905Z,15.20
2022-08-08T04:22:24.084Z,14.13
2022-08-08T04:24:54.027Z,16.42
2022-08-08T04:28:02.758Z,16.33
2022-08-08T04:30:19.184Z,14.40
2022-08-08T04:32:51.421Z,12.35
2022-08-08T04:35:23.302Z,14.20
2022-08-08T04:37:53.867Z,16.77
2022-08-08T04:40:26.511Z,16.30
2022-08-08T04:43:01.001Z,11.70
2022-08-08T04:45:46.719Z,10.75
2022-08-08T04:48:17.433Z,12.32
2022-08-08T04:50:50.622Z,12.82
2022-08-08T04:54:27.250Z,12.15
2022-08-08T04:56:19.931Z,11.02
2022-08-08T04:58:48.372Z,12.18
2022-08-08T05:01:18.765Z,11.87
2022-08-08T05:04:09.670Z,9.88
2022-08-08T05:06:41.494Z,8.15
2022-08-08T05:09:11.687Z,9.77
2022-08-08T05:11:42.289Z,11.70
2022-08-08T05:14:16.216Z,8.38
2022-08-08T05:17:00.581Z,9.88
2022-08-08T05:20:10.475Z,7.45
2022-08-08T05:22:31.954Z,8.57
2022-08-08T05:25:01.190Z,7.00
2022-08-08T05:27:33.137Z,8.13
2022-08-08T05:30:03.778Z,6.82
2022-08-08T05:33:03.072Z,6.03
2022-08-08T05:35:35.016Z,4.78
2022-08-08T05:38:31.343Z,5.63
2022-08-08T05:41:07.440Z,6.47
2022-08-08T05:44:03.783Z,8.23
2022-08-08T05:46:28.775Z,8.45
2022-08-08T05:49:10.385Z,6.88
2022-08-08T05:51:48.627Z,5.65
2022-08-08T05:54:28.873Z,8.75
2022-08-08T05:57:16.225Z,8.88
2022-08-08T06:00:23.058Z,6.85
2022-08-08T06:03:17.702Z,7.90
2022-08-08T06:06:01.606Z,9.23
2022-08-08T06:08:55.176Z,7.65
2022-08-08T06:11:32.181Z,6.93
2022-08-08T06:14:07.652Z,7.65
2022-08-08T06:16:43.329Z,6.90
2022-08-08T06:19:17.985Z,8.07
2022-08-08T06:21:57.310Z,8.27
2022-08-08T06:24:47.026Z,6.35
2022-08-08T06:27:27.383Z,5.18
2022-08-08T06:30:11.923Z,7.82
2022-08-08T06:33:02.315Z,7.40
2022-08-08T06:36:06.051Z,6.30
2022-08-08T06:38:28.882Z,4.93
2022-08-08T06:41:05.245Z,7.20
2022-08-08T06:43:37.996Z,4.85
2022-08-08T06:46:16.282Z,6.85
2022-08-08T06:48:48.766Z,5.97
2022-08-08T06:51:17.618Z,4.97
2022-08-08T06:53:51.322Z,5.50
2022-08-08T06:56:32.384Z,4.80
2022-08-08T06:59:01.749Z,4.53
2022-08-08T07:02:26.636Z,5.03
2022-08-08T07:05:02.395Z,4.78
2022-08-08T07:07:47.815Z,7.13
2022-08-08T07:10:22.632Z,6.43
2022-08-08T07:13:09.770Z,7.00
2022-08-08T07:16:10.407Z,5.72
2022-08-08T07:19:17.078Z,7.60
2022-08-08T07:22:02.319Z,7.20
2022-08-08T07:24:44.219Z,6.90
2022-08-08T07:27:19.012Z,7.78
2022-08-08T07:30:02.655Z,9.18
2022-08-08T07:32:40.134Z,9.88
2022-08-08T07:38:05.020Z,9.80
2022-08-08T07:40:40.661Z,9.40
2022-08-08T07:43:13.793Z,10.65
2022-08-08T07:46:05.523Z,10.27
2022-08-08T07:48:36.541Z,10.40
2022-08-08T07:51:04.959Z,12.73
2022-08-08T07:54:03.009Z,10.70
2022-08-08T07:57:09.148Z,13.23
2022-08-08T07:59:50.595Z,12.27
2022-08-08T08:02:35.200Z,14.43
2022-08-08T08:05:17.885Z,13.30
2022-08-08T08:07:54.851Z,14.65
2022-08-08T08:10:30.452Z,15.93
2022-08-08T08:13:42.979Z,20.13
2022-08-08T08:16:23.261Z,22.98
2022-08-08T08:19:14.955Z,19.27
2022-08-08T08:21:57.211Z,13.82
2022-08-08T08:24:35.695Z,10.52
2022-08-08T08:27:08.352Z,9.43
2022-08-08T08:29:42.373Z,10.13
2022-08-08T08:32:14.136Z,8.55
2022-08-08T08:35:00.384Z,8.07
2022-08-08T08:37:32.126Z,10.00
2022-08-08T08:40:03.213Z,10.23
2022-08-08T08:42:37.840Z,10.57
2022-08-08T08:45:21.615Z,10.52
2022-08-08T08:48:00.873Z,11.80
2022-08-08T08:50:35.613Z,12.63
2022-08-08T08:53:28.094Z,17.08
2022-08-08T08:56:07.765Z,20.92
2022-08-08T08:58:50.331Z,29.52
2022-08-08T09:01:34.581Z,26.60
2022-08-08T09:04:32.075Z,41.30
2022-08-08T09:07:17.041Z,64.00
2022-08-08T09:09:55.330Z,79.93
2022-08-08T09:12:36.029Z,79.43
2022-08-08T09:15:06.180Z,84.57
2022-08-08T09:17:52.170Z,90.15
2022-08-08T09:22:01.643Z,86.25
2022-08-08T09:23:17.848Z,88.38
2022-08-08T09:26:03.709Z,89.57
2022-08-08T09:28:40.019Z,89.10
2022-08-08T09:31:55.919Z,83.80
2022-08-08T09:34:35.817Z,85.15
2022-08-08T09:37:57.430Z,92.93
2022-08-08T09:40:11.309Z,89.88
2022-08-08T09:43:02.192Z,86.97
2022-08-08T09:46:03.899Z,92.50
2022-08-08T09:48:38.975Z,96.35
2022-08-08T09:51:10.714Z,79.68
2022-08-08T09:54:01.270Z,85.60
2022-08-08T09:56:41.180Z,87.07
2022-08-08T09:59:50.646Z,86.60
2022-08-08T10:02:12.588Z,93.50
2022-08-08T10:04:42.204Z,95.28
2022-08-08T10:07:17.235Z,103.90
2022-08-08T10:10:00.149Z,100.57
2022-08-08T10:12:53.447Z,103.13
2022-08-08T10:15:27.788Z,109.10
2022-08-08T10:18:06.545Z,103.70
2022-08-08T10:20:57.782Z,102.88
2022-08-08T10:23:58.505Z,92.28
2022-08-08T10:26:52.106Z,105.47
2022-08-08T10:29:28.112Z,104.35
2022-08-08T10:32:17.544Z,108.57
2022-08-08T10:34:58.502Z,101.40
2022-08-08T10:37:31.138Z,111.25
2022-08-08T10:40:16.506Z,115.47
2022-08-08T10:42:48.120Z,118.35
2022-08-08T10:45:16.669Z,124.60
2022-08-08T10:47:55.088Z,132.00
2022-08-08T10:50:31.661Z,138.32
2022-08-08T10:53:12.732Z,139.30
2022-08-08T10:55:46.443Z,140.90
2022-08-08T10:58:15.566Z,133.50
2022-08-08T11:00:53.221Z,132.93
2022-08-08T11:04:00.971Z,138.57
2022-08-08T11:06:36.860Z,154.40
2022-08-08T11:09:19.885Z,159.65
2022-08-08T11:12:05.478Z,166.48
2022-08-08T11:15:00.257Z,170.77
2022-08-08T11:18:01.296Z,177.68
2022-08-08T11:20:27.392Z,184.68
2022-08-08T11:23:00.351Z,172.75
2022-08-08T11:25:53.511Z,180.65
2022-08-08T11:28:29.743Z,168.98
2022-08-08T11:31:03.674Z,158.70
2022-08-08T11:33:52.412Z,160.18
2022-08-08T11:36:22.319Z,163.05
2022-08-08T11:38:55.655Z,162.15
2022-08-08T11:41:28.231Z,153.65
2022-08-08T11:44:00.752Z,154.20
2022-08-08T11:46:30.620Z,135.18
2022-08-08T11:49:04.218Z,131.27
2022-08-08T11:51:40.274Z,118.53
2022-08-08T11:54:32.328Z,108.13
2022-08-08T11:57:14.557Z,102.25
2022-08-08T12:00:05.899Z,109.68
2022-08-08T12:02:57.542Z,99.68
2022-08-08T12:05:41.174Z,108.50
2022-08-08T12:08:08.799Z,103.40
2022-08-08T12:10:47.991Z,110.60
2022-08-08T12:13:37.640Z,92.25
2022-08-08T12:16:12.105Z,101.55
2022-08-08T12:18:54.467Z,91.20
2022-08-08T12:21:58.643Z,92.88
2022-08-08T12:24:28.033Z,91.80
2022-08-08T12:26:57.138Z,99.25
2022-08-08T12:29:40.934Z,85.05
2022-08-08T12:32:20.349Z,96.30
2022-08-08T12:35:13.556Z,90.85
2022-08-08T12:38:01.998Z,111.68
2022-08-08T12:40:55.913Z,101.40
2022-08-08T12:43:46.353Z,101.25
2022-08-08T12:46:24.932Z,109.40
2022-08-08T12:49:20.715Z,110.90
2022-08-08T12:51:49.781Z,129.38
2022-08-08T12:54:25.166Z,127.95
2022-08-08T12:56:54.017Z,131.30
2022-08-08T12:59:27.233Z,132.02
2022-08-08T13:02:07.226Z,130.95
2022-08-08T13:04:34.903Z,135.00
2022-08-08T13:07:11.798Z,130.65
2022-08-08T13:09:43.045Z,130.23
2022-08-08T13:12:36.284Z,124.63
2022-08-08T13:15:09.956Z,119.22
2022-08-08T13:18:08.406Z,112.97
2022-08-08T13:20:27.458Z,103.75
2022-08-08T13:23:29.943Z,106.55
2022-08-08T13:25:51.010Z,104.47
2022-08-08T13:28:32.423Z,106.22
2022-08-08T13:31:05.314Z,92.78
2022-08-08T13:33:42.828Z,81.35
2022-08-08T13:36:12.062Z,71.35
2022-08-08T13:38:40.123Z,72.93
2022-08-08T13:41:16.744Z,61.80
2022-08-08T13:43:47.228Z,61.92
2022-08-08T13:46:26.533Z,66.68
2022-08-08T13:50:33.365Z,65.75
2022-08-08T13:52:03.983Z,67.43
2022-08-08T13:54:34.171Z,59.80
2022-08-08T13:57:12.355Z,62.92
2022-08-08T13:59:49.338Z,64.57
2022-08-08T14:02:33.186Z,65.30
2022-08-08T14:05:09.212Z,64.78
2022-08-08T14:07:52.018Z,66.43
2022-08-08T14:10:33.485Z,65.15
2022-08-08T14:13:30.461Z,62.15
2022-08-08T14:16:16.009Z,64.40
2022-08-08T14:18:59.176Z,66.97
2022-08-08T14:21:49.089Z,59.53
2022-08-08T14:24:33.868Z,64.50
2022-08-08T14:27:07.628Z,57.45
2022-08-08T14:29:39.364Z,60.65
2022-08-08T14:32:14.176Z,47.80
2022-08-08T14:34:51.306Z,52.92
2022-08-08T14:37:19.978Z,55.40
2022-08-08T14:40:05.226Z,63.08
2022-08-08T14:42:54.529Z,55.53
2022-08-08T14:45:33.236Z,56.10
2022-08-08T14:48:17.958Z,57.38
2022-08-08T14:51:07.101Z,54.55
2022-08-08T14:53:37.376Z,57.17
2022-08-08T14:56:24.743Z,59.42
2022-08-08T14:58:56.417Z,57.70
2022-08-08T15:01:37.582Z,55.75
2022-08-08T15:04:10.861Z,61.42
2022-08-08T15:06:39.100Z,57.17
2022-08-08T15:09:09.966Z,53.95
2022-08-08T15:11:43.172Z,59.92
2022-08-08T15:14:15.470Z,57.72
2022-08-08T15:16:44.461Z,56.60
2022-08-08T15:19:15.070Z,51.38
2022-08-08T15:21:43.248Z,59.08
2022-08-08T15:24:15.946Z,63.03
2022-08-08T15:26:52.995Z,60.67
2022-08-08T15:29:24.599Z,52.03
2022-08-08T15:32:17.799Z,52.70
2022-08-08T15:34:42.459Z,60.78
2022-08-08T15:37:10.731Z,58.42
2022-08-08T15:39:41.840Z,59.60
2022-08-08T15:42:17.757Z,56.67
2022-08-08T15:44:58.082Z,52.58
2022-08-08T15:47:25.652Z,58.90
2022-08-08T15:49:53.534Z,62.53
2022-08-08T15:52:23.096Z,56.72
2022-08-08T15:54:52.967Z,62.90
2022-08-08T15:57:23.005Z,60.95
2022-08-08T16:00:05.282Z,63.05
2022-08-08T16:02:50.339Z,59.20
2022-08-08T16:05:21.537Z,57.00
2022-08-08T16:07:53.929Z,64.05
2022-08-08T16:13:02.805Z,59.90
2022-08-08T16:13:34.139Z,56.55
2022-08-08T16:16:13.484Z,54.92
2022-08-08T16:18:56.157Z,60.70
2022-08-08T16:21:30.974Z,58.20
2022-08-08T16:24:02.426Z,62.10
2022-08-08T16:26:34.366Z,58.00
2022-08-08T16:29:15.387Z,56.17
2022-08-08T16:31:49.110Z,55.85
2022-08-08T16:34:21.904Z,52.55
2022-08-08T16:36:52.853Z,57.00
2022-08-08T16:39:59.525Z,54.08
2022-08-08T16:42:18.096Z,57.95
2022-08-08T16:44:54.333Z,54.63
2022-08-08T16:47:41.952Z,57.58
2022-08-08T16:50:13.928Z,51.13
2022-08-08T16:55:00.270Z,48.65
2022-08-08T16:55:52.719Z,56.55
2022-08-08T16:58:20.978Z,49.60
2022-08-08T17:00:51.672Z,49.70
2022-08-08T17:03:25.350Z,55.85
2022-08-08T17:06:36.232Z,54.92
2022-08-08T17:08:59.648Z,56.70
2022-08-08T17:11:28.329Z,53.40
2022-08-08T17:14:17.830Z,53.25
2022-08-08T17:16:57.534Z,55.45
2022-08-08T17:19:30.127Z,59.20
2022-08-08T17:22:01.482Z,55.00
2022-08-08T17:24:31.329Z,51.10
2022-08-08T17:27:00.512Z,52.53
2022-08-08T17:29:33.998Z,55.45
2022-08-08T17:32:05.881Z,55.65
2022-08-08T17:35:27.696Z,53.38
2022-08-08T17:37:27.646Z,55.17
2022-08-08T17:40:10.538Z,59.72
2022-08-08T17:42:46.770Z,50.25
2022-08-08T17:45:23.311Z,56.13
2022-08-08T17:47:54.186Z,52.88
2022-08-08T17:50:22.859Z,55.40
2022-08-08T17:52:50.332Z,53.15
2022-08-08T17:56:07.155Z,51.90
2022-08-08T17:58:05.424Z,55.65
2022-08-08T18:00:41.148Z,54.28
2022-08-08T18:03:13.862Z,51.72
2022-08-08T18:05:47.961Z,53.45
2022-08-08T18:08:24.770Z,52.00
2022-08-08T18:11:09.136Z,53.65
2022-08-08T18:13:41.698Z,50.95
2022-08-08T18:16:11.020Z,54.65
2022-08-08T18:18:45.437Z,50.90
2022-08-08T18:21:35.614Z,52.15
2022-08-08T18:24:13.676Z,52.22
2022-08-08T18:26:53.391Z,52.63
2022-08-08T18:29:34.032Z,56.03
2022-08-08T18:32:05.350Z,52.83
2022-08-08T18:34:36.113Z,54.80
2022-08-08T18:37:08.444Z,52.45
2022-08-08T18:39:38.616Z,56.10
2022-08-08T18:42:14.419Z,49.45
2022-08-08T18:44:54.827Z,57.50
2022-08-08T18:47:27.796Z,56.50
2022-08-08T18:50:00.429Z,55.60
2022-08-08T18:52:36.635Z,54.67
2022-08-08T18:55:09.433Z,58.10
2022-08-08T18:57:43.501Z,60.20
2022-08-08T19:00:20.349Z,55.42
2022-08-08T19:03:04.209Z,60.03
2022-08-08T19:05:38.509Z,60.35
2022-08-08T19:08:24.944Z,58.08
2022-08-08T19:10:58.598Z,56.33
2022-08-08T19:13:52.630Z,58.58
2022-08-08T19:16:19.246Z,56.20
2022-08-08T19:18:54.453Z,54.72
2022-08-08T19:21:29.441Z,59.45
2022-08-08T19:23:59.121Z,59.67
2022-08-08T19:26:30.083Z,58.35
2022-08-08T19:29:02.121Z,58.80
2022-08-08T19:31:31.890Z,61.17
2022-08-08T19:34:35.482Z,61.67
2022-08-08T19:36:58.533Z,58.55
2022-08-08T19:39:30.575Z,59.77
2022-08-08T19:42:05.192Z,60.60
2022-08-08T19:44:45.494Z,59.15
2022-08-08T19:47:15.629Z,59.67
2022-08-08T19:49:59.567Z,63.03
2022-08-08T19:52:35.419Z,56.63
2022-08-08T19:55:09.610Z,60.20
2022-08-08T19:57:44.578Z,60.45
2022-08-08T20:00:30.490Z,65.78
2022-08-08T20:03:14.743Z,65.97
2022-08-08T20:06:16.393Z,68.07
2022-08-08T20:08:41.758Z,61.20
2022-08-08T20:11:15.422Z,62.55
2022-08-08T20:14:13.394Z,59.53
2022-08-08T20:16:32.657Z,61.72
2022-08-08T20:19:03.026Z,62.92
2022-08-08T20:21:38.190Z,63.40
2022-08-08T20:24:07.752Z,62.72
2022-08-08T20:26:38.137Z,57.70
2022-08-08T20:29:08.693Z,55.88
2022-08-08T20:32:02.463Z,64.25
2022-08-08T20:34:28.642Z,59.40
2022-08-08T20:37:02.615Z,53.13
2022-08-08T20:39:39.117Z,55.35
2022-08-08T20:42:28.611Z,55.67
2022-08-08T20:44:58.917Z,52.78
2022-08-08T20:47:35.849Z,51.80
2022-08-08T20:50:05.726Z,51.78
2022-08-08T20:52:33.217Z,49.42
2022-08-08T20:55:01.605Z,49.95
2022-08-08T20:57:35.274Z,49.60
2022-08-08T21:00:12.167Z,47.08
2022-08-08T21:02:39.940Z,49.38
2022-08-08T21:05:11.677Z,46.25
2022-08-08T21:08:07.788Z,48.03
2022-08-08T21:10:28.489Z,47.53
2022-08-08T21:12:57.655Z,48.38
2022-08-08T21:16:05.684Z,51.30
2022-08-08T21:18:12.682Z,49.97
2022-08-08T21:20:42.433Z,49.58
2022-08-08T21:23:13.070Z,51.28
2022-08-08T21:25:48.975Z,51.05
2022-08-08T21:28:33.307Z,52.25
2022-08-08T21:31:21.945Z,49.70
2022-08-08T21:33:54.013Z,51.25
2022-08-08T21:36:28.810Z,51.63
2022-08-08T21:38:58.007Z,50.70
2022-08-08T21:41:38.078Z,48.25
2022-08-08T21:44:11.101Z,47.67
2022-08-08T21:48:05.838Z,50.10
2022-08-08T21:49:28.855Z,53.15
2022-08-08T21:54:32.396Z,48.50
2022-08-08T21:55:01.788Z,47.72
2022-08-08T21:57:43.129Z,49.38
2022-08-08T22:00:26.172Z,49.97
2022-08-08T22:05:21.588Z,49.15
2022-08-08T22:07:49.978Z,39.80
2022-08-08T22:10:32.227Z,48.70
2022-08-08T22:15:58.952Z,42.28
2022-08-08T22:19:19.988Z,44.53
2022-08-08T22:22:13.166Z,48.58
2022-08-08T22:24:42.308Z,45.65
2022-08-08T22:27:10.042Z,49.58
2022-08-08T22:29:58.692Z,54.33
2022-08-08T22:32:31.639Z,54.83
2022-08-08T22:34:59.125Z,49.33
2022-08-08T22:37:49.323Z,47.53
2022-08-08T22:40:17.006Z,49.47
2022-08-08T22:42:45.613Z,52.13
2022-08-08T22:45:15.790Z,47.00
2022-08-08T22:47:47.179Z,51.80
2022-08-08T22:50:26.731Z,53.13
2022-08-08T22:53:24.152Z,55.58
2022-08-08T22:55:58.628Z,56.92
2022-08-08T22:58:33.298Z,48.95
2022-08-08T23:01:30.226Z,46.67
2022-08-08T23:03:55.465Z,53.20
2022-08-08T23:06:24.683Z,53.75
2022-08-08T23:08:55.306Z,54.65
2022-08-08T23:11:31.269Z,52.08
2022-08-08T23:14:13.374Z,51.70
2022-08-08T23:16:43.703Z,58.17
2022-08-08T23:19:12.154Z,54.05
2022-08-08T23:21:39.608Z,50.20
2022-08-08T23:24:07.194Z,53.08
2022-08-08T23:26:34.662Z,55.33
2022-08-08T23:29:02.423Z,50.38
2022-08-08T23:31:29.913Z,58.40
2022-08-08T23:34:15.886Z,57.55
2022-08-08T23:36:46.910Z,63.03
2022-08-08T23:39:14.717Z,51.67
2022-08-08T23:41:46.838Z,56.92
2022-08-08T23:44:18.634Z,52.55
2022-08-08T23:49:01.306Z,57.15
2022-08-08T23:52:08.705Z,50.20
2022-08-08T23:54:43.800Z,51.42
2022-08-08T23:57:38.723Z,57.53
